sensor_id;sensor_type;location;lat;lon;timestamp;P1;durP1;ratioP1;P2;durP2;ratioP2
18125;SDS011;53956;52.442;13.284;2023-10-31T00:00:52;11.50;;;6.20;;
18125;SDS011;53956;52.442;13.284;2023-10-31T00:03:18;8.83;;;5.60;;
18125;SDS011;53956;52.442;13.284;2023-10-31T00:05:46;9.47;;;5.97;;
18125;SDS011;53956;52.442;13.284;2023-10-31T00:08:13;9.97;;;5.97;;
18125;SDS011;53956;52.442;13.284;2023-10-31T00:10:39;10.60;;;5.70;;
18125;SDS011;53956;52.442;13.284;2023-10-31T00:13:09;10.10;;;5.90;;
18125;SDS011;53956;52.442;13.284;2023-10-31T00:15:36;10.87;;;6.10;;
18125;SDS011;53956;52.442;13.284;2023-10-31T00:18:03;8.63;;;6.10;;
18125;SDS011;53956;52.442;13.284;2023-10-31T00:20:29;9.87;;;5.57;;
18125;SDS011;53956;52.442;13.284;2023-10-31T00:22:57;14.67;;;5.90;;
18125;SDS011;53956;52.442;13.284;2023-10-31T00:25:24;9.40;;;6.10;;
18125;SDS011;53956;52.442;13.284;2023-10-31T00:27:51;12.83;;;6.23;;
18125;SDS011;53956;52.442;13.284;2023-10-31T00:30:17;9.60;;;6.00;;
18125;SDS011;53956;52.442;13.284;2023-10-31T00:32:44;10.63;;;6.37;;
18125;SDS011;53956;52.442;13.284;2023-10-31T00:35:11;10.43;;;6.53;;
18125;SDS011;53956;52.442;13.284;2023-10-31T00:37:37;9.63;;;6.30;;
18125;SDS011;53956;52.442;13.284;2023-10-31T00:40:07;12.00;;;6.23;;
18125;SDS011;53956;52.442;13.284;2023-10-31T00:42:36;11.50;;;6.37;;
18125;SDS011;53956;52.442;13.284;2023-10-31T00:45:03;14.00;;;5.77;;
18125;SDS011;53956;52.442;13.284;2023-10-31T00:47:30;8.67;;;5.77;;
18125;SDS011;53956;52.442;13.284;2023-10-31T00:49:56;9.60;;;6.33;;
18125;SDS011;53956;52.442;13.284;2023-10-31T00:52:23;9.60;;;5.97;;
18125;SDS011;53956;52.442;13.284;2023-10-31T00:54:50;10.13;;;6.20;;
18125;SDS011;53956;52.442;13.284;2023-10-31T00:57:18;11.70;;;5.80;;
18125;SDS011;53956;52.442;13.284;2023-10-31T00:59:44;13.73;;;6.20;;
18125;SDS011;53956;52.442;13.284;2023-10-31T01:02:11;11.43;;;6.00;;
18125;SDS011;53956;52.442;13.284;2023-10-31T01:04:38;12.37;;;6.33;;
18125;SDS011;53956;52.442;13.284;2023-10-31T01:07:04;10.43;;;6.30;;
18125;SDS011;53956;52.442;13.284;2023-10-31T01:09:31;10.90;;;6.57;;
18125;SDS011;53956;52.442;13.284;2023-10-31T01:11:57;11.97;;;5.90;;
18125;SDS011;53956;52.442;13.284;2023-10-31T01:14:25;11.47;;;6.43;;
18125;SDS011;53956;52.442;13.284;2023-10-31T01:16:52;9.80;;;5.97;;
18125;SDS011;53956;52.442;13.284;2023-10-31T01:19:18;9.70;;;6.07;;
18125;SDS011;53956;52.442;13.284;2023-10-31T01:21:45;10.37;;;6.10;;
18125;SDS011;53956;52.442;13.284;2023-10-31T01:24:12;10.57;;;6.53;;
18125;SDS011;53956;52.442;13.284;2023-10-31T01:26:38;11.33;;;6.80;;
18125;SDS011;53956;52.442;13.284;2023-10-31T01:29:05;11.83;;;6.77;;
18125;SDS011;53956;52.442;13.284;2023-10-31T01:31:33;14.87;;;6.80;;
18125;SDS011;53956;52.442;13.284;2023-10-31T01:34:02;12.07;;;6.67;;
18125;SDS011;53956;52.442;13.284;2023-10-31T01:36:28;10.23;;;6.40;;
18125;SDS011;53956;52.442;13.284;2023-10-31T01:38:55;9.00;;;6.73;;
18125;SDS011;53956;52.442;13.284;2023-10-31T01:41:22;9.53;;;6.57;;
18125;SDS011;53956;52.442;13.284;2023-10-31T01:43:48;14.07;;;6.53;;
18125;SDS011;53956;52.442;13.284;2023-10-31T01:46:15;10.43;;;6.13;;
18125;SDS011;53956;52.442;13.284;2023-10-31T01:48:43;10.63;;;6.70;;
18125;SDS011;53956;52.442;13.284;2023-10-31T01:51:10;12.43;;;6.73;;
18125;SDS011;53956;52.442;13.284;2023-10-31T01:53:37;11.30;;;7.07;;
18125;SDS011;53956;52.442;13.284;2023-10-31T01:56:04;11.07;;;6.77;;
18125;SDS011;53956;52.442;13.284;2023-10-31T01:58:31;8.87;;;6.50;;
18125;SDS011;53956;52.442;13.284;2023-10-31T02:00:59;8.77;;;6.40;;
18125;SDS011;53956;52.442;13.284;2023-10-31T02:03:26;12.43;;;7.17;;
18125;SDS011;53956;52.442;13.284;2023-10-31T02:05:55;11.33;;;7.17;;
18125;SDS011;53956;52.442;13.284;2023-10-31T02:08:23;10.73;;;7.10;;
18125;SDS011;53956;52.442;13.284;2023-10-31T02:10:50;10.23;;;7.03;;
18125;SDS011;53956;52.442;13.284;2023-10-31T02:13:17;9.37;;;6.40;;
18125;SDS011;53956;52.442;13.284;2023-10-31T02:15:44;10.17;;;6.50;;
18125;SDS011;53956;52.442;13.284;2023-10-31T02:18:12;9.17;;;6.43;;
18125;SDS011;53956;52.442;13.284;2023-10-31T02:20:38;14.03;;;7.23;;
18125;SDS011;53956;52.442;13.284;2023-10-31T02:23:07;10.73;;;6.70;;
18125;SDS011;53956;52.442;13.284;2023-10-31T02:25:33;11.37;;;7.10;;
18125;SDS011;53956;52.442;13.284;2023-10-31T02:28:00;11.53;;;7.67;;
18125;SDS011;53956;52.442;13.284;2023-10-31T02:30:27;11.33;;;6.83;;
18125;SDS011;53956;52.442;13.284;2023-10-31T02:32:54;14.57;;;7.17;;
18125;SDS011;53956;52.442;13.284;2023-10-31T02:35:20;11.30;;;7.07;;
18125;SDS011;53956;52.442;13.284;2023-10-31T02:37:47;9.80;;;6.87;;
18125;SDS011;53956;52.442;13.284;2023-10-31T02:40:15;11.67;;;6.33;;
18125;SDS011;53956;52.442;13.284;2023-10-31T02:42:42;12.23;;;6.60;;
18125;SDS011;53956;52.442;13.284;2023-10-31T02:45:10;9.60;;;6.57;;
18125;SDS011;53956;52.442;13.284;2023-10-31T02:47:37;10.27;;;6.40;;
18125;SDS011;53956;52.442;13.284;2023-10-31T02:50:04;11.60;;;7.10;;
18125;SDS011;53956;52.442;13.284;2023-10-31T02:52:31;11.00;;;7.13;;
18125;SDS011;53956;52.442;13.284;2023-10-31T02:54:58;12.80;;;7.23;;
18125;SDS011;53956;52.442;13.284;2023-10-31T02:57:26;10.33;;;7.17;;
18125;SDS011;53956;52.442;13.284;2023-10-31T02:59:52;11.03;;;7.40;;
18125;SDS011;53956;52.442;13.284;2023-10-31T03:02:19;11.87;;;7.50;;
18125;SDS011;53956;52.442;13.284;2023-10-31T03:04:47;11.10;;;7.27;;
18125;SDS011;53956;52.442;13.284;2023-10-31T03:07:14;12.63;;;7.70;;
18125;SDS011;53956;52.442;13.284;2023-10-31T03:09:40;10.37;;;6.83;;
18125;SDS011;53956;52.442;13.284;2023-10-31T03:12:07;9.87;;;7.10;;
18125;SDS011;53956;52.442;13.284;2023-10-31T03:14:35;13.07;;;7.60;;
18125;SDS011;53956;52.442;13.284;2023-10-31T03:17:02;12.97;;;7.83;;
18125;SDS011;53956;52.442;13.284;2023-10-31T03:19:29;13.60;;;7.53;;
18125;SDS011;53956;52.442;13.284;2023-10-31T03:21:55;11.77;;;7.07;;
18125;SDS011;53956;52.442;13.284;2023-10-31T03:24:22;12.17;;;7.23;;
18125;SDS011;53956;52.442;13.284;2023-10-31T03:26:48;11.60;;;7.50;;
18125;SDS011;53956;52.442;13.284;2023-10-31T03:29:15;11.80;;;7.33;;
18125;SDS011;53956;52.442;13.284;2023-10-31T03:31:43;9.57;;;7.53;;
18125;SDS011;53956;52.442;13.284;2023-10-31T03:34:09;11.20;;;7.00;;
18125;SDS011;53956;52.442;13.284;2023-10-31T03:36:36;12.13;;;7.53;;
18125;SDS011;53956;52.442;13.284;2023-10-31T03:39:03;12.40;;;7.67;;
18125;SDS011;53956;52.442;13.284;2023-10-31T03:41:29;11.10;;;7.20;;
18125;SDS011;53956;52.442;13.284;2023-10-31T03:43:56;11.93;;;7.47;;
18125;SDS011;53956;52.442;13.284;2023-10-31T03:46:23;9.83;;;7.37;;
18125;SDS011;53956;52.442;13.284;2023-10-31T03:48:51;9.20;;;7.77;;
18125;SDS011;53956;52.442;13.284;2023-10-31T03:51:17;10.23;;;6.60;;
18125;SDS011;53956;52.442;13.284;2023-10-31T03:53:44;11.83;;;7.37;;
18125;SDS011;53956;52.442;13.284;2023-10-31T03:56:10;11.73;;;7.27;;
18125;SDS011;53956;52.442;13.284;2023-10-31T03:58:39;10.13;;;7.60;;
18125;SDS011;53956;52.442;13.284;2023-10-31T04:01:07;9.30;;;6.87;;
18125;SDS011;53956;52.442;13.284;2023-10-31T04:03:34;11.43;;;7.47;;
18125;SDS011;53956;52.442;13.284;2023-10-31T04:06:02;11.23;;;7.50;;
18125;SDS011;53956;52.442;13.284;2023-10-31T04:08:29;10.37;;;7.57;;
18125;SDS011;53956;52.442;13.284;2023-10-31T04:10:55;9.77;;;7.17;;
18125;SDS011;53956;52.442;13.284;2023-10-31T04:13:22;10.97;;;7.50;;
18125;SDS011;53956;52.442;13.284;2023-10-31T04:15:49;9.93;;;7.70;;
18125;SDS011;53956;52.442;13.284;2023-10-31T04:18:15;11.67;;;7.57;;
18125;SDS011;53956;52.442;13.284;2023-10-31T04:20:42;11.83;;;7.40;;
18125;SDS011;53956;52.442;13.284;2023-10-31T04:23:10;10.50;;;7.20;;
18125;SDS011;53956;52.442;13.284;2023-10-31T04:25:37;9.93;;;7.90;;
18125;SDS011;53956;52.442;13.284;2023-10-31T04:28:03;12.43;;;7.53;;
18125;SDS011;53956;52.442;13.284;2023-10-31T04:30:30;13.00;;;8.07;;
18125;SDS011;53956;52.442;13.284;2023-10-31T04:32:57;11.00;;;8.17;;
18125;SDS011;53956;52.442;13.284;2023-10-31T04:35:23;12.10;;;8.40;;
18125;SDS011;53956;52.442;13.284;2023-10-31T04:37:50;10.50;;;8.23;;
18125;SDS011;53956;52.442;13.284;2023-10-31T04:40:18;10.80;;;8.40;;
18125;SDS011;53956;52.442;13.284;2023-10-31T04:42:45;11.60;;;8.50;;
18125;SDS011;53956;52.442;13.284;2023-10-31T04:45:12;10.57;;;8.00;;
18125;SDS011;53956;52.442;13.284;2023-10-31T04:47:39;12.83;;;8.17;;
18125;SDS011;53956;52.442;13.284;2023-10-31T04:50:07;10.63;;;8.00;;
18125;SDS011;53956;52.442;13.284;2023-10-31T04:52:34;11.67;;;8.27;;
18125;SDS011;53956;52.442;13.284;2023-10-31T04:55:01;9.90;;;7.97;;
18125;SDS011;53956;52.442;13.284;2023-10-31T04:57:29;12.50;;;7.97;;
18125;SDS011;53956;52.442;13.284;2023-10-31T04:59:56;10.37;;;8.03;;
18125;SDS011;53956;52.442;13.284;2023-10-31T05:02:24;11.13;;;8.23;;
18125;SDS011;53956;52.442;13.284;2023-10-31T05:04:50;13.00;;;8.43;;
18125;SDS011;53956;52.442;13.284;2023-10-31T05:07:17;14.53;;;8.43;;
18125;SDS011;53956;52.442;13.284;2023-10-31T05:09:44;10.33;;;8.27;;
18125;SDS011;53956;52.442;13.284;2023-10-31T05:12:10;12.40;;;8.63;;
18125;SDS011;53956;52.442;13.284;2023-10-31T05:14:39;11.17;;;8.73;;
18125;SDS011;53956;52.442;13.284;2023-10-31T05:17:06;11.10;;;8.57;;
18125;SDS011;53956;52.442;13.284;2023-10-31T05:19:33;11.27;;;9.40;;
18125;SDS011;53956;52.442;13.284;2023-10-31T05:21:59;11.83;;;8.70;;
18125;SDS011;53956;52.442;13.284;2023-10-31T05:24:26;11.67;;;8.43;;
18125;SDS011;53956;52.442;13.284;2023-10-31T05:26:52;11.17;;;8.27;;
18125;SDS011;53956;52.442;13.284;2023-10-31T05:29:19;12.23;;;8.80;;
18125;SDS011;53956;52.442;13.284;2023-10-31T05:31:47;13.87;;;8.93;;
18125;SDS011;53956;52.442;13.284;2023-10-31T05:34:13;11.87;;;8.17;;
18125;SDS011;53956;52.442;13.284;2023-10-31T05:36:40;10.97;;;7.70;;
18125;SDS011;53956;52.442;13.284;2023-10-31T05:39:07;10.73;;;8.23;;
18125;SDS011;53956;52.442;13.284;2023-10-31T05:41:34;11.13;;;7.33;;
18125;SDS011;53956;52.442;13.284;2023-10-31T05:44:01;9.67;;;6.97;;
18125;SDS011;53956;52.442;13.284;2023-10-31T05:46:28;8.80;;;6.90;;
18125;SDS011;53956;52.442;13.284;2023-10-31T05:48:56;7.93;;;7.03;;
18125;SDS011;53956;52.442;13.284;2023-10-31T05:51:23;7.97;;;6.60;;
18125;SDS011;53956;52.442;13.284;2023-10-31T05:53:50;9.10;;;6.77;;
18125;SDS011;53956;52.442;13.284;2023-10-31T05:56:17;8.70;;;6.53;;
18125;SDS011;53956;52.442;13.284;2023-10-31T05:58:43;8.20;;;6.30;;
18125;SDS011;53956;52.442;13.284;2023-10-31T06:01:10;8.07;;;6.20;;
18125;SDS011;53956;52.442;13.284;2023-10-31T06:03:37;7.53;;;5.90;;
18125;SDS011;53956;52.442;13.284;2023-10-31T06:06:08;8.47;;;6.60;;
18125;SDS011;53956;52.442;13.284;2023-10-31T06:08:35;7.53;;;6.20;;
18125;SDS011;53956;52.442;13.284;2023-10-31T06:11:03;7.70;;;6.00;;
18125;SDS011;53956;52.442;13.284;2023-10-31T06:13:29;7.63;;;6.30;;
18125;SDS011;53956;52.442;13.284;2023-10-31T06:15:56;7.37;;;5.47;;
18125;SDS011;53956;52.442;13.284;2023-10-31T06:18:23;6.77;;;5.70;;
18125;SDS011;53956;52.442;13.284;2023-10-31T06:20:50;6.87;;;5.37;;
18125;SDS011;53956;52.442;13.284;2023-10-31T06:23:18;6.93;;;5.83;;
18125;SDS011;53956;52.442;13.284;2023-10-31T06:25:45;6.77;;;5.80;;
18125;SDS011;53956;52.442;13.284;2023-10-31T06:28:12;7.17;;;5.33;;
18125;SDS011;53956;52.442;13.284;2023-10-31T06:30:38;5.83;;;4.73;;
18125;SDS011;53956;52.442;13.284;2023-10-31T06:33:05;6.00;;;5.40;;
18125;SDS011;53956;52.442;13.284;2023-10-31T06:35:32;6.57;;;5.13;;
18125;SDS011;53956;52.442;13.284;2023-10-31T06:38:00;5.63;;;5.10;;
18125;SDS011;53956;52.442;13.284;2023-10-31T06:40:28;6.07;;;5.40;;
18125;SDS011;53956;52.442;13.284;2023-10-31T06:42:55;6.10;;;4.93;;
18125;SDS011;53956;52.442;13.284;2023-10-31T06:45:21;5.50;;;4.40;;
18125;SDS011;53956;52.442;13.284;2023-10-31T06:47:48;6.40;;;4.67;;
18125;SDS011;53956;52.442;13.284;2023-10-31T06:50:14;6.87;;;4.47;;
18125;SDS011;53956;52.442;13.284;2023-10-31T06:52:41;6.30;;;4.70;;
18125;SDS011;53956;52.442;13.284;2023-10-31T06:55:08;5.60;;;4.47;;
18125;SDS011;53956;52.442;13.284;2023-10-31T06:57:36;6.67;;;4.33;;
18125;SDS011;53956;52.442;13.284;2023-10-31T07:00:03;4.60;;;4.03;;
18125;SDS011;53956;52.442;13.284;2023-10-31T07:02:33;4.77;;;4.00;;
18125;SDS011;53956;52.442;13.284;2023-10-31T07:05:00;4.50;;;4.10;;
18125;SDS011;53956;52.442;13.284;2023-10-31T07:07:26;4.95;;;3.70;;
18125;SDS011;53956;52.442;13.284;2023-10-31T07:09:53;4.87;;;3.43;;
18125;SDS011;53956;52.442;13.284;2023-10-31T07:12:20;4.33;;;3.30;;
18125;SDS011;53956;52.442;13.284;2023-10-31T07:14:48;7.00;;;3.90;;
18125;SDS011;53956;52.442;13.284;2023-10-31T07:17:14;4.83;;;3.77;;
18125;SDS011;53956;52.442;13.284;2023-10-31T07:19:41;5.07;;;3.47;;
18125;SDS011;53956;52.442;13.284;2023-10-31T07:22:07;4.17;;;3.20;;
18125;SDS011;53956;52.442;13.284;2023-10-31T07:24:34;4.33;;;3.10;;
18125;SDS011;53956;52.442;13.284;2023-10-31T07:27:01;5.03;;;3.67;;
18125;SDS011;53956;52.442;13.284;2023-10-31T07:29:28;4.30;;;3.03;;
18125;SDS011;53956;52.442;13.284;2023-10-31T07:31:55;4.33;;;3.50;;
18125;SDS011;53956;52.442;13.284;2023-10-31T07:34:22;3.87;;;2.70;;
18125;SDS011;53956;52.442;13.284;2023-10-31T07:36:49;3.53;;;2.63;;
18125;SDS011;53956;52.442;13.284;2023-10-31T07:39:15;3.10;;;2.50;;
18125;SDS011;53956;52.442;13.284;2023-10-31T07:41:42;2.50;;;2.30;;
18125;SDS011;53956;52.442;13.284;2023-10-31T07:44:09;3.27;;;2.10;;
18125;SDS011;53956;52.442;13.284;2023-10-31T07:46:36;2.43;;;2.23;;
18125;SDS011;53956;52.442;13.284;2023-10-31T07:49:03;4.13;;;2.33;;
18125;SDS011;53956;52.442;13.284;2023-10-31T07:51:30;2.23;;;2.03;;
18125;SDS011;53956;52.442;13.284;2023-10-31T07:53:57;2.80;;;2.20;;
18125;SDS011;53956;52.442;13.284;2023-10-31T07:56:24;3.53;;;1.93;;
18125;SDS011;53956;52.442;13.284;2023-10-31T07:58:51;2.40;;;1.77;;
18125;SDS011;53956;52.442;13.284;2023-10-31T08:01:19;2.13;;;1.83;;
18125;SDS011;53956;52.442;13.284;2023-10-31T08:03:48;3.53;;;2.00;;
18125;SDS011;53956;52.442;13.284;2023-10-31T08:06:16;2.03;;;1.90;;
18125;SDS011;53956;52.442;13.284;2023-10-31T08:08:43;2.37;;;1.90;;
18125;SDS011;53956;52.442;13.284;2023-10-31T08:11:10;2.97;;;1.90;;
18125;SDS011;53956;52.442;13.284;2023-10-31T08:13:37;2.00;;;1.90;;
18125;SDS011;53956;52.442;13.284;2023-10-31T08:16:04;2.33;;;1.90;;
18125;SDS011;53956;52.442;13.284;2023-10-31T08:18:32;2.40;;;1.73;;
18125;SDS011;53956;52.442;13.284;2023-10-31T08:20:59;1.60;;;1.50;;
18125;SDS011;53956;52.442;13.284;2023-10-31T08:23:28;1.70;;;1.60;;
18125;SDS011;53956;52.442;13.284;2023-10-31T08:25:55;1.70;;;1.60;;
18125;SDS011;53956;52.442;13.284;2023-10-31T08:28:21;2.83;;;1.40;;
18125;SDS011;53956;52.442;13.284;2023-10-31T08:30:48;1.73;;;1.40;;
18125;SDS011;53956;52.442;13.284;2023-10-31T08:33:15;2.63;;;1.50;;
18125;SDS011;53956;52.442;13.284;2023-10-31T08:35:41;1.50;;;1.40;;
18125;SDS011;53956;52.442;13.284;2023-10-31T08:38:08;2.53;;;1.30;;
18125;SDS011;53956;52.442;13.284;2023-10-31T08:40:36;1.30;;;1.20;;
18125;SDS011;53956;52.442;13.284;2023-10-31T08:43:03;2.43;;;1.20;;
18125;SDS011;53956;52.442;13.284;2023-10-31T08:45:31;1.50;;;1.40;;
18125;SDS011;53956;52.442;13.284;2023-10-31T08:47:58;1.57;;;1.30;;
18125;SDS011;53956;52.442;13.284;2023-10-31T08:50:24;4.10;;;1.40;;
18125;SDS011;53956;52.442;13.284;2023-10-31T08:52:51;1.30;;;1.20;;
18125;SDS011;53956;52.442;13.284;2023-10-31T08:55:18;1.30;;;1.20;;
18125;SDS011;53956;52.442;13.284;2023-10-31T08:57:46;3.00;;;1.13;;
18125;SDS011;53956;52.442;13.284;2023-10-31T09:00:13;2.07;;;1.20;;
18125;SDS011;53956;52.442;13.284;2023-10-31T09:02:40;1.37;;;1.23;;
18125;SDS011;53956;52.442;13.284;2023-10-31T09:05:08;1.43;;;1.30;;
18125;SDS011;53956;52.442;13.284;2023-10-31T09:07:34;1.73;;;1.20;;
18125;SDS011;53956;52.442;13.284;2023-10-31T09:10:01;2.70;;;1.30;;
18125;SDS011;53956;52.442;13.284;2023-10-31T09:12:30;2.77;;;1.20;;
18125;SDS011;53956;52.442;13.284;2023-10-31T09:14:58;1.83;;;1.30;;
18125;SDS011;53956;52.442;13.284;2023-10-31T09:17:24;2.83;;;1.37;;
18125;SDS011;53956;52.442;13.284;2023-10-31T09:19:51;1.47;;;1.30;;
18125;SDS011;53956;52.442;13.284;2023-10-31T09:22:18;2.93;;;1.40;;
18125;SDS011;53956;52.442;13.284;2023-10-31T09:24:45;1.53;;;1.43;;
18125;SDS011;53956;52.442;13.284;2023-10-31T09:27:12;2.27;;;1.50;;
18125;SDS011;53956;52.442;13.284;2023-10-31T09:29:38;2.03;;;1.50;;
18125;SDS011;53956;52.442;13.284;2023-10-31T09:32:06;1.60;;;1.47;;
18125;SDS011;53956;52.442;13.284;2023-10-31T09:34:33;4.40;;;1.70;;
18125;SDS011;53956;52.442;13.284;2023-10-31T09:37:00;1.70;;;1.60;;
18125;SDS011;53956;52.442;13.284;2023-10-31T09:39:26;2.60;;;1.60;;
18125;SDS011;53956;52.442;13.284;2023-10-31T09:41:54;2.50;;;1.60;;
18125;SDS011;53956;52.442;13.284;2023-10-31T09:44:20;1.67;;;1.50;;
18125;SDS011;53956;52.442;13.284;2023-10-31T09:46:47;2.27;;;1.80;;
18125;SDS011;53956;52.442;13.284;2023-10-31T09:49:15;1.80;;;1.70;;
18125;SDS011;53956;52.442;13.284;2023-10-31T09:51:42;2.63;;;1.87;;
18125;SDS011;53956;52.442;13.284;2023-10-31T09:54:09;3.47;;;1.77;;
18125;SDS011;53956;52.442;13.284;2023-10-31T09:56:40;2.87;;;1.53;;
18125;SDS011;53956;52.442;13.284;2023-10-31T09:59:08;2.23;;;1.77;;
18125;SDS011;53956;52.442;13.284;2023-10-31T10:01:35;2.43;;;1.70;;
18125;SDS011;53956;52.442;13.284;2023-10-31T10:04:02;2.07;;;1.83;;
18125;SDS011;53956;52.442;13.284;2023-10-31T10:06:30;2.13;;;1.50;;
18125;SDS011;53956;52.442;13.284;2023-10-31T10:08:58;1.90;;;1.70;;
18125;SDS011;53956;52.442;13.284;2023-10-31T10:11:27;1.70;;;1.60;;
18125;SDS011;53956;52.442;13.284;2023-10-31T10:13:54;2.73;;;1.77;;
18125;SDS011;53956;52.442;13.284;2023-10-31T10:16:29;2.03;;;1.70;;
18125;SDS011;53956;52.442;13.284;2023-10-31T10:18:57;2.87;;;1.80;;
18125;SDS011;53956;52.442;13.284;2023-10-31T10:21:47;3.60;;;1.87;;
18125;SDS011;53956;52.442;13.284;2023-10-31T10:24:14;3.40;;;1.90;;
18125;SDS011;53956;52.442;13.284;2023-10-31T10:26:41;2.40;;;1.77;;
18125;SDS011;53956;52.442;13.284;2023-10-31T10:29:08;2.17;;;1.80;;
18125;SDS011;53956;52.442;13.284;2023-10-31T10:31:34;2.00;;;1.80;;
18125;SDS011;53956;52.442;13.284;2023-10-31T10:34:01;2.80;;;2.10;;
18125;SDS011;53956;52.442;13.284;2023-10-31T10:36:28;4.20;;;2.40;;
18125;SDS011;53956;52.442;13.284;2023-10-31T10:38:59;5.13;;;1.90;;
18125;SDS011;53956;52.442;13.284;2023-10-31T10:41:26;2.37;;;2.17;;
18125;SDS011;53956;52.442;13.284;2023-10-31T10:43:55;2.43;;;2.00;;
18125;SDS011;53956;52.442;13.284;2023-10-31T10:46:23;2.40;;;2.17;;
18125;SDS011;53956;52.442;13.284;2023-10-31T10:48:52;3.10;;;2.20;;
18125;SDS011;53956;52.442;13.284;2023-10-31T10:51:24;3.57;;;2.20;;
18125;SDS011;53956;52.442;13.284;2023-10-31T10:53:55;3.27;;;2.20;;
18125;SDS011;53956;52.442;13.284;2023-10-31T10:56:31;2.60;;;2.40;;
18125;SDS011;53956;52.442;13.284;2023-10-31T10:59:06;4.13;;;2.47;;
18125;SDS011;53956;52.442;13.284;2023-10-31T11:01:39;2.70;;;2.50;;
18125;SDS011;53956;52.442;13.284;2023-10-31T11:04:07;3.38;;;2.47;;
18125;SDS011;53956;52.442;13.284;2023-10-31T11:06:35;2.60;;;2.40;;
18125;SDS011;53956;52.442;13.284;2023-10-31T11:09:04;4.67;;;2.43;;
18125;SDS011;53956;52.442;13.284;2023-10-31T11:11:32;2.87;;;2.50;;
18125;SDS011;53956;52.442;13.284;2023-10-31T11:14:00;2.80;;;2.50;;
18125;SDS011;53956;52.442;13.284;2023-10-31T11:16:29;3.50;;;2.47;;
18125;SDS011;53956;52.442;13.284;2023-10-31T11:19:00;2.93;;;2.30;;
18125;SDS011;53956;52.442;13.284;2023-10-31T11:21:27;3.20;;;2.40;;
18125;SDS011;53956;52.442;13.284;2023-10-31T11:23:58;2.83;;;2.60;;
18125;SDS011;53956;52.442;13.284;2023-10-31T11:26:26;2.87;;;2.60;;
18125;SDS011;53956;52.442;13.284;2023-10-31T11:29:02;2.43;;;2.23;;
18125;SDS011;53956;52.442;13.284;2023-10-31T11:31:29;3.67;;;2.20;;
18125;SDS011;53956;52.442;13.284;2023-10-31T11:33:56;4.13;;;2.50;;
18125;SDS011;53956;52.442;13.284;2023-10-31T11:36:23;3.38;;;1.90;;
18125;SDS011;53956;52.442;13.284;2023-10-31T11:38:50;2.10;;;1.90;;
18125;SDS011;53956;52.442;13.284;2023-10-31T11:41:38;2.60;;;2.00;;
18125;SDS011;53956;52.442;13.284;2023-10-31T11:44:05;1.87;;;1.77;;
18125;SDS011;53956;52.442;13.284;2023-10-31T11:46:32;2.20;;;1.90;;
18125;SDS011;53956;52.442;13.284;2023-10-31T11:48:59;1.87;;;1.70;;
18125;SDS011;53956;52.442;13.284;2023-10-31T11:51:27;2.10;;;1.90;;
18125;SDS011;53956;52.442;13.284;2023-10-31T11:53:54;2.00;;;1.80;;
18125;SDS011;53956;52.442;13.284;2023-10-31T11:56:20;2.10;;;1.90;;
18125;SDS011;53956;52.442;13.284;2023-10-31T11:59:02;3.83;;;1.70;;
18125;SDS011;53956;52.442;13.284;2023-10-31T12:01:31;1.50;;;1.40;;
18125;SDS011;53956;52.442;13.284;2023-10-31T12:03:58;2.23;;;1.50;;
18125;SDS011;53956;52.442;13.284;2023-10-31T12:06:25;1.80;;;1.67;;
18125;SDS011;53956;52.442;13.284;2023-10-31T12:08:51;1.87;;;1.40;;
18125;SDS011;53956;52.442;13.284;2023-10-31T12:11:18;1.60;;;1.50;;
18125;SDS011;53956;52.442;13.284;2023-10-31T12:13:53;2.43;;;1.60;;
18125;SDS011;53956;52.442;13.284;2023-10-31T12:16:26;2.53;;;1.50;;
18125;SDS011;53956;52.442;13.284;2023-10-31T12:18:54;1.70;;;1.60;;
18125;SDS011;53956;52.442;13.284;2023-10-31T12:21:37;2.50;;;1.30;;
18125;SDS011;53956;52.442;13.284;2023-10-31T12:24:06;1.50;;;1.40;;
18125;SDS011;53956;52.442;13.284;2023-10-31T12:26:33;1.60;;;1.50;;
18125;SDS011;53956;52.442;13.284;2023-10-31T12:29:07;2.73;;;1.50;;
18125;SDS011;53956;52.442;13.284;2023-10-31T12:31:38;1.57;;;1.20;;
18125;SDS011;53956;52.442;13.284;2023-10-31T12:34:05;1.40;;;1.30;;
18125;SDS011;53956;52.442;13.284;2023-10-31T12:36:33;1.57;;;1.17;;
18125;SDS011;53956;52.442;13.284;2023-10-31T12:39:02;2.07;;;1.20;;
18125;SDS011;53956;52.442;13.284;2023-10-31T12:41:31;1.53;;;1.30;;
18125;SDS011;53956;52.442;13.284;2023-10-31T12:43:57;1.40;;;1.30;;
18125;SDS011;53956;52.442;13.284;2023-10-31T12:46:25;1.20;;;1.10;;
18125;SDS011;53956;52.442;13.284;2023-10-31T12:48:53;1.53;;;1.40;;
18125;SDS011;53956;52.442;13.284;2023-10-31T12:51:20;2.47;;;1.43;;
18125;SDS011;53956;52.442;13.284;2023-10-31T12:53:48;1.43;;;1.30;;
18125;SDS011;53956;52.442;13.284;2023-10-31T12:59:04;1.60;;;1.30;;
18125;SDS011;53956;52.442;13.284;2023-10-31T13:01:31;1.83;;;1.30;;
18125;SDS011;53956;52.442;13.284;2023-10-31T13:03:59;1.40;;;1.30;;
18125;SDS011;53956;52.442;13.284;2023-10-31T13:06:26;1.23;;;1.17;;
18125;SDS011;53956;52.442;13.284;2023-10-31T13:08:54;3.37;;;1.20;;
18125;SDS011;53956;52.442;13.284;2023-10-31T13:11:21;2.17;;;1.50;;
18125;SDS011;53956;52.442;13.284;2023-10-31T13:13:51;2.07;;;1.30;;
18125;SDS011;53956;52.442;13.284;2023-10-31T13:16:17;1.40;;;1.30;;
18125;SDS011;53956;52.442;13.284;2023-10-31T13:18:44;2.47;;;1.23;;
18125;SDS011;53956;52.442;13.284;2023-10-31T13:21:12;1.50;;;1.40;;
18125;SDS011;53956;52.442;13.284;2023-10-31T13:23:39;1.20;;;1.10;;
18125;SDS011;53956;52.442;13.284;2023-10-31T13:26:10;1.20;;;1.13;;
18125;SDS011;53956;52.442;13.284;2023-10-31T13:28:36;1.83;;;1.20;;
18125;SDS011;53956;52.442;13.284;2023-10-31T13:31:04;1.30;;;1.10;;
18125;SDS011;53956;52.442;13.284;2023-10-31T13:33:31;1.30;;;1.20;;
18125;SDS011;53956;52.442;13.284;2023-10-31T13:35:58;1.63;;;1.10;;
18125;SDS011;53956;52.442;13.284;2023-10-31T13:38:26;1.70;;;1.00;;
18125;SDS011;53956;52.442;13.284;2023-10-31T13:40:53;2.03;;;1.13;;
18125;SDS011;53956;52.442;13.284;2023-10-31T13:43:19;1.30;;;1.20;;
18125;SDS011;53956;52.442;13.284;2023-10-31T13:45:46;1.10;;;1.07;;
18125;SDS011;53956;52.442;13.284;2023-10-31T13:48:12;1.10;;;1.00;;
18125;SDS011;53956;52.442;13.284;2023-10-31T13:50:39;1.57;;;1.20;;
18125;SDS011;53956;52.442;13.284;2023-10-31T13:53:06;1.43;;;1.00;;
18125;SDS011;53956;52.442;13.284;2023-10-31T13:55:34;1.20;;;1.10;;
18125;SDS011;53956;52.442;13.284;2023-10-31T13:58:02;1.13;;;1.03;;
18125;SDS011;53956;52.442;13.284;2023-10-31T14:00:28;1.43;;;1.10;;
18125;SDS011;53956;52.442;13.284;2023-10-31T14:02:55;2.53;;;1.20;;
18125;SDS011;53956;52.442;13.284;2023-10-31T14:05:22;1.20;;;1.10;;
18125;SDS011;53956;52.442;13.284;2023-10-31T14:07:49;1.20;;;1.10;;
18125;SDS011;53956;52.442;13.284;2023-10-31T14:10:16;1.03;;;1.00;;
18125;SDS011;53956;52.442;13.284;2023-10-31T14:12:46;1.23;;;1.13;;
18125;SDS011;53956;52.442;13.284;2023-10-31T14:15:12;1.10;;;1.10;;
18125;SDS011;53956;52.442;13.284;2023-10-31T14:17:39;2.63;;;1.20;;
18125;SDS011;53956;52.442;13.284;2023-10-31T14:20:06;1.63;;;1.10;;
18125;SDS011;53956;52.442;13.284;2023-10-31T14:22:33;1.17;;;1.07;;
18125;SDS011;53956;52.442;13.284;2023-10-31T14:25:00;1.30;;;1.20;;
18125;SDS011;53956;52.442;13.284;2023-10-31T14:27:29;1.53;;;1.10;;
18125;SDS011;53956;52.442;13.284;2023-10-31T14:29:57;3.20;;;1.30;;
18125;SDS011;53956;52.442;13.284;2023-10-31T14:32:23;1.50;;;1.30;;
18125;SDS011;53956;52.442;13.284;2023-10-31T14:34:50;1.93;;;1.20;;